sensor_id;sensor_type;location;lat;lon;timestamp;P1;durP1;ratioP1;P2;durP2;ratioP2
18647;SDS011;9453;50.294;18.644;2023-07-30T04:01:06;2.90;;;0.98;;
18647;SDS011;9453;50.294;18.644;2023-07-30T04:03:34;1.35;;;0.90;;
18647;SDS011;9453;50.294;18.644;2023-07-30T04:06:01;1.70;;;0.98;;
18647;SDS011;9453;50.294;18.644;2023-07-30T04:08:28;2.03;;;1.00;;
18647;SDS011;9453;50.294;18.644;2023-07-30T04:10:54;1.80;;;1.00;;
18647;SDS011;9453;50.294;18.644;2023-07-30T04:13:21;2.00;;;0.90;;
18647;SDS011;9453;50.294;18.644;2023-07-30T04:15:48;2.55;;;0.90;;
18647;SDS011;9453;50.294;18.644;2023-07-30T04:18:17;1.42;;;0.90;;
18647;SDS011;9453;50.294;18.644;2023-07-30T04:20:44;1.20;;;0.90;;
18647;SDS011;9453;50.294;18.644;2023-07-30T04:23:11;1.50;;;0.95;;
18647;SDS011;9453;50.294;18.644;2023-07-30T04:25:38;1.70;;;1.00;;
18647;SDS011;9453;50.294;18.644;2023-07-30T04:28:05;1.55;;;1.10;;
18647;SDS011;9453;50.294;18.644;2023-07-30T04:30:32;1.30;;;0.82;;
18647;SDS011;9453;50.294;18.644;2023-07-30T04:32:59;1.98;;;0.90;;
18647;SDS011;9453;50.294;18.644;2023-07-30T04:35:27;1.05;;;0.77;;
18647;SDS011;9453;50.294;18.644;2023-07-30T04:37:54;0.80;;;0.60;;
18647;SDS011;9453;50.294;18.644;2023-07-30T04:40:21;1.40;;;0.93;;
18647;SDS011;9453;50.294;18.644;2023-07-30T04:42:48;1.27;;;0.80;;
18647;SDS011;9453;50.294;18.644;2023-07-30T04:45:15;3.60;;;0.88;;
18647;SDS011;9453;50.294;18.644;2023-07-30T04:47:42;3.13;;;1.25;;
18647;SDS011;9453;50.294;18.644;2023-07-30T04:50:09;1.35;;;0.93;;
18647;SDS011;9453;50.294;18.644;2023-07-30T04:52:37;2.45;;;1.13;;
18647;SDS011;9453;50.294;18.644;2023-07-30T04:55:05;2.83;;;0.90;;
18647;SDS011;9453;50.294;18.644;2023-07-30T04:57:32;1.70;;;1.13;;
18647;SDS011;9453;50.294;18.644;2023-07-30T04:59:59;1.73;;;0.98;;
18647;SDS011;9453;50.294;18.644;2023-07-30T05:02:26;0.70;;;0.57;;
18647;SDS011;9453;50.294;18.644;2023-07-30T05:04:53;1.83;;;0.75;;
18647;SDS011;9453;50.294;18.644;2023-07-30T05:07:20;1.25;;;0.80;;
18647;SDS011;9453;50.294;18.644;2023-07-30T05:09:48;1.05;;;0.68;;
18647;SDS011;9453;50.294;18.644;2023-07-30T05:12:15;1.38;;;0.80;;
18647;SDS011;9453;50.294;18.644;2023-07-30T05:14:42;1.20;;;0.77;;
18647;SDS011;9453;50.294;18.644;2023-07-30T05:17:09;1.13;;;0.73;;
18647;SDS011;9453;50.294;18.644;2023-07-30T05:19:36;4.22;;;1.13;;
18647;SDS011;9453;50.294;18.644;2023-07-30T05:22:03;2.47;;;1.00;;
18647;SDS011;9453;50.294;18.644;2023-07-30T05:24:32;2.55;;;0.90;;
18647;SDS011;9453;50.294;18.644;2023-07-30T05:27:03;2.33;;;1.00;;
18647;SDS011;9453;50.294;18.644;2023-07-30T05:29:31;2.22;;;0.98;;
18647;SDS011;9453;50.294;18.644;2023-07-30T05:31:57;1.98;;;1.10;;
18647;SDS011;9453;50.294;18.644;2023-07-30T05:34:24;3.47;;;0.80;;
18647;SDS011;9453;50.294;18.644;2023-07-30T05:36:52;2.25;;;1.10;;
18647;SDS011;9453;50.294;18.644;2023-07-30T05:39:19;4.78;;;1.27;;
18647;SDS011;9453;50.294;18.644;2023-07-30T05:41:46;2.22;;;1.20;;
18647;SDS011;9453;50.294;18.644;2023-07-30T05:44:14;3.50;;;1.20;;
18647;SDS011;9453;50.294;18.644;2023-07-30T05:46:41;2.80;;;1.30;;
18647;SDS011;9453;50.294;18.644;2023-07-30T05:49:08;3.53;;;1.20;;
18647;SDS011;9453;50.294;18.644;2023-07-30T05:51:35;1.48;;;1.08;;
18647;SDS011;9453;50.294;18.644;2023-07-30T05:54:02;2.72;;;1.33;;
18647;SDS011;9453;50.294;18.644;2023-07-30T05:56:30;2.83;;;1.30;;
18647;SDS011;9453;50.294;18.644;2023-07-30T05:58:57;3.92;;;1.38;;
18647;SDS011;9453;50.294;18.644;2023-07-30T06:01:25;3.78;;;1.38;;
18647;SDS011;9453;50.294;18.644;2023-07-30T06:03:52;3.13;;;1.30;;
18647;SDS011;9453;50.294;18.644;2023-07-30T06:06:19;4.63;;;1.33;;
18647;SDS011;9453;50.294;18.644;2023-07-30T06:08:52;2.15;;;1.25;;
18647;SDS011;9453;50.294;18.644;2023-07-30T06:11:19;2.90;;;1.30;;
18647;SDS011;9453;50.294;18.644;2023-07-30T06:13:46;3.78;;;1.27;;
18647;SDS011;9453;50.294;18.644;2023-07-30T06:16:13;4.10;;;1.10;;
18647;SDS011;9453;50.294;18.644;2023-07-30T06:18:41;1.10;;;0.90;;
18647;SDS011;9453;50.294;18.644;2023-07-30T06:21:08;1.00;;;0.80;;
18647;SDS011;9453;50.294;18.644;2023-07-30T06:23:35;3.80;;;1.00;;
18647;SDS011;9453;50.294;18.644;2023-07-30T06:26:02;2.30;;;1.10;;
18647;SDS011;9453;50.294;18.644;2023-07-30T06:28:28;2.05;;;1.02;;
18647;SDS011;9453;50.294;18.644;2023-07-30T06:30:55;2.33;;;0.93;;
18647;SDS011;9453;50.294;18.644;2023-07-30T06:33:26;2.20;;;1.20;;
18647;SDS011;9453;50.294;18.644;2023-07-30T06:35:54;1.92;;;0.98;;
18647;SDS011;9453;50.294;18.644;2023-07-30T06:38:21;2.63;;;1.38;;
18647;SDS011;9453;50.294;18.644;2023-07-30T06:40:48;6.53;;;1.88;;
18647;SDS011;9453;50.294;18.644;2023-07-30T06:43:15;3.83;;;1.40;;
18647;SDS011;9453;50.294;18.644;2023-07-30T06:45:42;4.97;;;1.10;;
18647;SDS011;9453;50.294;18.644;2023-07-30T06:48:09;4.35;;;1.02;;
18647;SDS011;9453;50.294;18.644;2023-07-30T06:50:36;1.40;;;0.90;;
18647;SDS011;9453;50.294;18.644;2023-07-30T06:53:04;2.33;;;1.20;;
18647;SDS011;9453;50.294;18.644;2023-07-30T06:55:31;2.10;;;1.17;;
18647;SDS011;9453;50.294;18.644;2023-07-30T06:57:58;2.03;;;1.23;;
18647;SDS011;9453;50.294;18.644;2023-07-30T07:00:25;2.25;;;1.13;;
18647;SDS011;9453;50.294;18.644;2023-07-30T07:02:52;1.95;;;1.30;;
18647;SDS011;9453;50.294;18.644;2023-07-30T07:05:19;2.25;;;1.33;;
18647;SDS011;9453;50.294;18.644;2023-07-30T07:07:46;2.55;;;1.33;;
18647;SDS011;9453;50.294;18.644;2023-07-30T07:10:15;3.03;;;1.45;;
18647;SDS011;9453;50.294;18.644;2023-07-30T07:12:41;3.00;;;1.33;;
18647;SDS011;9453;50.294;18.644;2023-07-30T07:15:08;3.17;;;1.27;;
18647;SDS011;9453;50.294;18.644;2023-07-30T07:17:35;4.35;;;1.25;;
18647;SDS011;9453;50.294;18.644;2023-07-30T07:20:02;1.98;;;1.20;;
18647;SDS011;9453;50.294;18.644;2023-07-30T07:22:31;3.42;;;1.45;;
18647;SDS011;9453;50.294;18.644;2023-07-30T07:24:58;4.25;;;1.40;;
18647;SDS011;9453;50.294;18.644;2023-07-30T07:27:27;1.83;;;1.30;;
18647;SDS011;9453;50.294;18.644;2023-07-30T07:29:54;2.55;;;1.10;;
18647;SDS011;9453;50.294;18.644;2023-07-30T07:32:21;4.22;;;1.55;;
18647;SDS011;9453;50.294;18.644;2023-07-30T07:34:48;4.25;;;1.48;;
18647;SDS011;9453;50.294;18.644;2023-07-30T07:37:16;6.13;;;1.83;;
18647;SDS011;9453;50.294;18.644;2023-07-30T07:39:43;2.28;;;1.38;;
18647;SDS011;9453;50.294;18.644;2023-07-30T07:42:11;1.80;;;1.17;;
18647;SDS011;9453;50.294;18.644;2023-07-30T07:44:40;2.60;;;1.50;;
18647;SDS011;9453;50.294;18.644;2023-07-30T07:47:08;2.85;;;1.70;;
18647;SDS011;9453;50.294;18.644;2023-07-30T07:49:35;2.80;;;1.63;;
18647;SDS011;9453;50.294;18.644;2023-07-30T07:52:02;2.92;;;1.55;;
18647;SDS011;9453;50.294;18.644;2023-07-30T07:54:29;4.38;;;1.45;;
18647;SDS011;9453;50.294;18.644;2023-07-30T07:56:57;3.50;;;1.80;;
18647;SDS011;9453;50.294;18.644;2023-07-30T07:59:23;3.58;;;1.60;;
18647;SDS011;9453;50.294;18.644;2023-07-30T08:01:52;5.82;;;1.92;;
18647;SDS011;9453;50.294;18.644;2023-07-30T08:04:19;7.15;;;2.28;;
18647;SDS011;9453;50.294;18.644;2023-07-30T08:06:47;3.13;;;1.58;;
18647;SDS011;9453;50.294;18.644;2023-07-30T08:09:14;3.30;;;1.65;;
18647;SDS011;9453;50.294;18.644;2023-07-30T08:11:41;4.32;;;1.75;;
18647;SDS011;9453;50.294;18.644;2023-07-30T08:14:08;1.98;;;1.67;;
18647;SDS011;9453;50.294;18.644;2023-07-30T08:16:35;3.58;;;2.00;;
18647;SDS011;9453;50.294;18.644;2023-07-30T08:19:03;1.38;;;1.20;;
18647;SDS011;9453;50.294;18.644;2023-07-30T08:21:30;2.75;;;1.33;;
18647;SDS011;9453;50.294;18.644;2023-07-30T08:23:57;2.38;;;1.67;;
18647;SDS011;9453;50.294;18.644;2023-07-30T08:26:24;3.00;;;1.50;;
18647;SDS011;9453;50.294;18.644;2023-07-30T08:28:50;2.22;;;1.38;;
18647;SDS011;9453;50.294;18.644;2023-07-30T08:31:17;5.22;;;1.65;;
18647;SDS011;9453;50.294;18.644;2023-07-30T08:33:44;2.70;;;1.38;;
18647;SDS011;9453;50.294;18.644;2023-07-30T08:36:12;2.58;;;1.50;;
18647;SDS011;9453;50.294;18.644;2023-07-30T08:38:39;1.95;;;1.52;;
18647;SDS011;9453;50.294;18.644;2023-07-30T08:41:06;2.53;;;1.48;;
18647;SDS011;9453;50.294;18.644;2023-07-30T08:43:34;4.85;;;1.75;;
18647;SDS011;9453;50.294;18.644;2023-07-30T08:46:01;1.42;;;1.33;;
18647;SDS011;9453;50.294;18.644;2023-07-30T08:48:35;3.15;;;1.42;;
18647;SDS011;9453;50.294;18.644;2023-07-30T08:51:02;3.53;;;2.03;;
18647;SDS011;9453;50.294;18.644;2023-07-30T08:53:30;2.35;;;1.52;;
18647;SDS011;9453;50.294;18.644;2023-07-30T08:55:58;3.63;;;1.52;;
18647;SDS011;9453;50.294;18.644;2023-07-30T08:58:26;1.75;;;1.33;;
18647;SDS011;9453;50.294;18.644;2023-07-30T09:00:55;2.15;;;1.40;;
18647;SDS011;9453;50.294;18.644;2023-07-30T09:03:23;2.78;;;1.60;;
18647;SDS011;9453;50.294;18.644;2023-07-30T09:05:53;2.60;;;1.58;;
18647;SDS011;9453;50.294;18.644;2023-07-30T09:08:20;3.22;;;1.70;;
18647;SDS011;9453;50.294;18.644;2023-07-30T09:10:49;4.05;;;1.45;;
18647;SDS011;9453;50.294;18.644;2023-07-30T09:13:20;1.77;;;1.42;;
18647;SDS011;9453;50.294;18.644;2023-07-30T09:15:48;2.78;;;1.25;;
18647;SDS011;9453;50.294;18.644;2023-07-30T09:18:16;2.03;;;1.38;;
18647;SDS011;9453;50.294;18.644;2023-07-30T09:20:43;2.50;;;1.42;;
18647;SDS011;9453;50.294;18.644;2023-07-30T09:23:10;3.03;;;1.45;;
18647;SDS011;9453;50.294;18.644;2023-07-30T09:25:38;2.10;;;1.40;;
18647;SDS011;9453;50.294;18.644;2023-07-30T09:28:06;5.38;;;1.73;;
18647;SDS011;9453;50.294;18.644;2023-07-30T09:30:33;3.90;;;1.50;;
18647;SDS011;9453;50.294;18.644;2023-07-30T09:33:00;4.55;;;1.90;;
18647;SDS011;9453;50.294;18.644;2023-07-30T09:35:27;2.55;;;2.10;;
18647;SDS011;9453;50.294;18.644;2023-07-30T09:37:57;1.83;;;1.38;;
18647;SDS011;9453;50.294;18.644;2023-07-30T09:40:33;1.20;;;1.10;;
18647;SDS011;9453;50.294;18.644;2023-07-30T09:43:02;1.48;;;1.20;;
18647;SDS011;9453;50.294;18.644;2023-07-30T09:45:32;1.80;;;1.40;;
18647;SDS011;9453;50.294;18.644;2023-07-30T09:48:01;1.15;;;1.00;;
18647;SDS011;9453;50.294;18.644;2023-07-30T09:50:29;1.52;;;1.17;;
18647;SDS011;9453;50.294;18.644;2023-07-30T09:52:57;1.70;;;1.40;;
18647;SDS011;9453;50.294;18.644;2023-07-30T09:55:26;4.18;;;1.63;;
18647;SDS011;9453;50.294;18.644;2023-07-30T09:57:53;1.45;;;1.10;;
18647;SDS011;9453;50.294;18.644;2023-07-30T10:00:21;1.50;;;1.35;;
18647;SDS011;9453;50.294;18.644;2023-07-30T10:02:49;3.88;;;1.33;;
18647;SDS011;9453;50.294;18.644;2023-07-30T10:05:18;2.88;;;1.70;;
18647;SDS011;9453;50.294;18.644;2023-07-30T10:07:47;1.38;;;1.17;;
18647;SDS011;9453;50.294;18.644;2023-07-30T10:10:18;1.60;;;1.30;;
18647;SDS011;9453;50.294;18.644;2023-07-30T10:12:46;2.25;;;1.20;;
18647;SDS011;9453;50.294;18.644;2023-07-30T10:15:13;1.83;;;1.00;;
18647;SDS011;9453;50.294;18.644;2023-07-30T10:17:45;4.40;;;1.63;;
18647;SDS011;9453;50.294;18.644;2023-07-30T10:20:20;3.13;;;1.60;;
18647;SDS011;9453;50.294;18.644;2023-07-30T10:22:50;3.72;;;1.60;;
18647;SDS011;9453;50.294;18.644;2023-07-30T10:25:22;1.65;;;1.38;;
18647;SDS011;9453;50.294;18.644;2023-07-30T10:27:54;1.70;;;1.38;;
18647;SDS011;9453;50.294;18.644;2023-07-30T10:30:21;4.22;;;1.40;;
18647;SDS011;9453;50.294;18.644;2023-07-30T10:32:59;4.82;;;1.58;;
18647;SDS011;9453;50.294;18.644;2023-07-30T10:35:38;2.03;;;1.48;;
18647;SDS011;9453;50.294;18.644;2023-07-30T10:38:13;1.85;;;1.30;;
18647;SDS011;9453;50.294;18.644;2023-07-30T10:41:01;3.03;;;1.83;;
18647;SDS011;9453;50.294;18.644;2023-07-30T10:43:29;6.28;;;2.10;;
18647;SDS011;9453;50.294;18.644;2023-07-30T10:45:56;3.25;;;1.73;;
18647;SDS011;9453;50.294;18.644;2023-07-30T10:48:30;2.50;;;1.83;;
18647;SDS011;9453;50.294;18.644;2023-07-30T10:51:00;1.45;;;1.27;;
18647;SDS011;9453;50.294;18.644;2023-07-30T10:53:28;6.75;;;2.03;;
18647;SDS011;9453;50.294;18.644;2023-07-30T10:55:57;3.75;;;1.55;;
18647;SDS011;9453;50.294;18.644;2023-07-30T10:58:26;2.60;;;1.70;;
18647;SDS011;9453;50.294;18.644;2023-07-30T11:00:53;3.88;;;1.50;;
18647;SDS011;9453;50.294;18.644;2023-07-30T11:03:21;2.25;;;1.60;;
18647;SDS011;9453;50.294;18.644;2023-07-30T11:05:54;1.80;;;1.23;;
18647;SDS011;9453;50.294;18.644;2023-07-30T11:08:30;1.75;;;1.40;;
18647;SDS011;9453;50.294;18.644;2023-07-30T11:10:59;4.93;;;1.77;;
18647;SDS011;9453;50.294;18.644;2023-07-30T11:13:26;3.63;;;1.60;;
18647;SDS011;9453;50.294;18.644;2023-07-30T11:15:53;4.60;;;2.17;;
18647;SDS011;9453;50.294;18.644;2023-07-30T11:18:20;3.75;;;2.15;;
18647;SDS011;9453;50.294;18.644;2023-07-30T11:20:47;6.80;;;1.83;;
18647;SDS011;9453;50.294;18.644;2023-07-30T11:23:18;2.70;;;1.48;;
18647;SDS011;9453;50.294;18.644;2023-07-30T11:25:48;1.90;;;1.50;;
18647;SDS011;9453;50.294;18.644;2023-07-30T11:28:26;2.10;;;1.58;;
18647;SDS011;9453;50.294;18.644;2023-07-30T11:30:55;2.83;;;1.67;;
18647;SDS011;9453;50.294;18.644;2023-07-30T11:33:26;7.22;;;1.75;;
18647;SDS011;9453;50.294;18.644;2023-07-30T11:35:53;2.58;;;1.48;;
18647;SDS011;9453;50.294;18.644;2023-07-30T11:38:21;3.85;;;1.80;;
18647;SDS011;9453;50.294;18.644;2023-07-30T11:40:50;4.55;;;1.40;;
18647;SDS011;9453;50.294;18.644;2023-07-30T11:43:18;2.63;;;1.60;;
18647;SDS011;9453;50.294;18.644;2023-07-30T11:45:46;3.22;;;1.42;;
18647;SDS011;9453;50.294;18.644;2023-07-30T11:48:13;2.55;;;1.50;;
18647;SDS011;9453;50.294;18.644;2023-07-30T11:50:46;4.07;;;1.70;;
18647;SDS011;9453;50.294;18.644;2023-07-30T11:53:13;3.53;;;1.77;;
18647;SDS011;9453;50.294;18.644;2023-07-30T11:55:41;3.28;;;1.75;;
18647;SDS011;9453;50.294;18.644;2023-07-30T11:58:11;2.58;;;1.83;;
18647;SDS011;9453;50.294;18.644;2023-07-30T12:00:39;2.13;;;1.48;;
18647;SDS011;9453;50.294;18.644;2023-07-30T12:03:09;3.45;;;1.80;;
18647;SDS011;9453;50.294;18.644;2023-07-30T12:05:38;2.85;;;1.63;;
18647;SDS011;9453;50.294;18.644;2023-07-30T12:08:06;1.80;;;1.50;;
18647;SDS011;9453;50.294;18.644;2023-07-30T12:10:40;2.20;;;1.70;;
18647;SDS011;9453;50.294;18.644;2023-07-30T12:13:14;6.18;;;1.77;;
18647;SDS011;9453;50.294;18.644;2023-07-30T12:15:43;2.42;;;1.50;;
18647;SDS011;9453;50.294;18.644;2023-07-30T12:18:10;2.38;;;1.75;;
18647;SDS011;9453;50.294;18.644;2023-07-30T12:20:37;1.67;;;1.40;;
18647;SDS011;9453;50.294;18.644;2023-07-30T12:23:04;2.55;;;1.75;;
18647;SDS011;9453;50.294;18.644;2023-07-30T12:25:31;1.73;;;1.50;;
18647;SDS011;9453;50.294;18.644;2023-07-30T12:27:58;1.67;;;1.40;;
18647;SDS011;9453;50.294;18.644;2023-07-30T12:30:26;4.80;;;1.80;;
18647;SDS011;9453;50.294;18.644;2023-07-30T12:32:53;1.90;;;1.70;;
18647;SDS011;9453;50.294;18.644;2023-07-30T12:35:20;2.05;;;1.63;;
18647;SDS011;9453;50.294;18.644;2023-07-30T12:37:47;3.67;;;1.67;;
18647;SDS011;9453;50.294;18.644;2023-07-30T12:40:16;4.30;;;1.35;;
18647;SDS011;9453;50.294;18.644;2023-07-30T12:42:43;1.67;;;1.50;;
18647;SDS011;9453;50.294;18.644;2023-07-30T12:45:10;6.05;;;1.55;;
18647;SDS011;9453;50.294;18.644;2023-07-30T12:47:38;2.60;;;1.77;;
18647;SDS011;9453;50.294;18.644;2023-07-30T12:50:05;3.72;;;1.60;;
18647;SDS011;9453;50.294;18.644;2023-07-30T12:52:33;1.42;;;1.30;;
18647;SDS011;9453;50.294;18.644;2023-07-30T12:55:00;2.10;;;1.50;;
18647;SDS011;9453;50.294;18.644;2023-07-30T12:57:29;2.30;;;1.48;;
18647;SDS011;9453;50.294;18.644;2023-07-30T12:59:56;10.55;;;2.40;;
18647;SDS011;9453;50.294;18.644;2023-07-30T13:02:23;2.60;;;1.50;;
18647;SDS011;9453;50.294;18.644;2023-07-30T13:04:51;3.63;;;1.40;;
18647;SDS011;9453;50.294;18.644;2023-07-30T13:07:18;4.03;;;1.70;;
18647;SDS011;9453;50.294;18.644;2023-07-30T13:09:45;4.35;;;1.52;;
18647;SDS011;9453;50.294;18.644;2023-07-30T13:12:12;4.68;;;1.63;;
18647;SDS011;9453;50.294;18.644;2023-07-30T13:14:39;2.85;;;1.48;;
18647;SDS011;9453;50.294;18.644;2023-07-30T13:17:06;9.88;;;1.80;;
18647;SDS011;9453;50.294;18.644;2023-07-30T13:19:33;2.85;;;1.58;;
18647;SDS011;9453;50.294;18.644;2023-07-30T13:22:01;3.92;;;1.60;;
18647;SDS011;9453;50.294;18.644;2023-07-30T13:24:28;2.08;;;1.40;;
18647;SDS011;9453;50.294;18.644;2023-07-30T13:26:56;1.88;;;1.45;;
18647;SDS011;9453;50.294;18.644;2023-07-30T13:29:23;4.78;;;1.70;;
18647;SDS011;9453;50.294;18.644;2023-07-30T13:31:50;2.55;;;1.40;;
18647;SDS011;9453;50.294;18.644;2023-07-30T13:34:17;2.63;;;1.52;;
18647;SDS011;9453;50.294;18.644;2023-07-30T13:36:44;2.40;;;1.65;;
18647;SDS011;9453;50.294;18.644;2023-07-30T13:39:12;2.25;;;1.50;;
18647;SDS011;9453;50.294;18.644;2023-07-30T13:41:39;2.67;;;1.90;;
18647;SDS011;9453;50.294;18.644;2023-07-30T13:44:06;3.15;;;1.60;;
18647;SDS011;9453;50.294;18.644;2023-07-30T13:46:33;3.28;;;2.00;;
18647;SDS011;9453;50.294;18.644;2023-07-30T13:49:00;4.63;;;1.60;;
18647;SDS011;9453;50.294;18.644;2023-07-30T13:51:27;5.35;;;2.20;;
18647;SDS011;9453;50.294;18.644;2023-07-30T13:53:57;3.83;;;2.25;;
18647;SDS011;9453;50.294;18.644;2023-07-30T13:56:26;2.78;;;1.63;;
18647;SDS011;9453;50.294;18.644;2023-07-30T13:58:53;2.72;;;2.00;;
18647;SDS011;9453;50.294;18.644;2023-07-30T14:01:20;2.45;;;1.55;;
18647;SDS011;9453;50.294;18.644;2023-07-30T14:03:48;3.28;;;1.70;;
18647;SDS011;9453;50.294;18.644;2023-07-30T14:06:15;3.83;;;1.80;;
18647;SDS011;9453;50.294;18.644;2023-07-30T14:08:42;3.40;;;1.50;;
18647;SDS011;9453;50.294;18.644;2023-07-30T14:11:09;3.28;;;1.58;;
18647;SDS011;9453;50.294;18.644;2023-07-30T14:13:37;1.92;;;1.67;;
18647;SDS011;9453;50.294;18.644;2023-07-30T14:16:04;2.00;;;1.50;;
18647;SDS011;9453;50.294;18.644;2023-07-30T14:18:31;4.60;;;1.70;;
18647;SDS011;9453;50.294;18.644;2023-07-30T14:20:59;3.08;;;1.75;;
18647;SDS011;9453;50.294;18.644;2023-07-30T14:23:27;3.47;;;1.45;;
18647;SDS011;9453;50.294;18.644;2023-07-30T14:25:54;2.63;;;1.60;;
18647;SDS011;9453;50.294;18.644;2023-07-30T14:28:21;2.45;;;1.60;;
18647;SDS011;9453;50.294;18.644;2023-07-30T14:30:49;3.03;;;1.80;;
18647;SDS011;9453;50.294;18.644;2023-07-30T14:33:16;3.20;;;1.83;;
18647;SDS011;9453;50.294;18.644;2023-07-30T14:35:43;2.35;;;1.40;;
18647;SDS011;9453;50.294;18.644;2023-07-30T14:38:10;4.55;;;1.50;;
18647;SDS011;9453;50.294;18.644;2023-07-30T14:40:38;3.97;;;1.70;;
18647;SDS011;9453;50.294;18.644;2023-07-30T14:43:04;3.03;;;1.50;;
18647;SDS011;9453;50.294;18.644;2023-07-30T14:45:31;2.75;;;1.42;;
18647;SDS011;9453;50.294;18.644;2023-07-30T14:48:00;1.58;;;1.35;;
18647;SDS011;9453;50.294;18.644;2023-07-30T14:50:26;1.75;;;1.35;;
18647;SDS011;9453;50.294;18.644;2023-07-30T14:52:54;2.05;;;1.70;;
18647;SDS011;9453;50.294;18.644;2023-07-30T14:55:21;4.35;;;1.70;;
18647;SDS011;9453;50.294;18.644;2023-07-30T14:57:47;2.55;;;1.35;;
18647;SDS011;9453;50.294;18.644;2023-07-30T15:00:15;1.85;;;1.38;;
18647;SDS011;9453;50.294;18.644;2023-07-30T15:02:42;1.98;;;1.55;;
18647;SDS011;9453;50.294;18.644;2023-07-30T15:05:10;4.65;;;1.60;;
18647;SDS011;9453;50.294;18.644;2023-07-30T15:07:37;1.75;;;1.52;;
18647;SDS011;9453;50.294;18.644;2023-07-30T15:10:05;1.90;;;1.40;;
18647;SDS011;9453;50.294;18.644;2023-07-30T15:12:32;1.83;;;1.20;;
18647;SDS011;9453;50.294;18.644;2023-07-30T15:14:59;7.00;;;2.15;;
18647;SDS011;9453;50.294;18.644;2023-07-30T15:17:26;5.03;;;1.40;;
18647;SDS011;9453;50.294;18.644;2023-07-30T15:19:53;2.08;;;1.30;;
18647;SDS011;9453;50.294;18.644;2023-07-30T15:22:21;10.45;;;1.90;;
18647;SDS011;9453;50.294;18.644;2023-07-30T15:24:48;2.58;;;1.45;;
18647;SDS011;9453;50.294;18.644;2023-07-30T15:27:15;3.30;;;2.20;;
18647;SDS011;9453;50.294;18.644;2023-07-30T15:29:42;8.77;;;2.10;;
18647;SDS011;9453;50.294;18.644;2023-07-30T15:32:10;4.35;;;2.13;;
18647;SDS011;9453;50.294;18.644;2023-07-30T15:34:37;12.90;;;3.22;;
18647;SDS011;9453;50.294;18.644;2023-07-30T15:37:04;5.53;;;2.17;;
18647;SDS011;9453;50.294;18.644;2023-07-30T15:39:32;13.43;;;2.20;;
18647;SDS011;9453;50.294;18.644;2023-07-30T15:41:59;4.07;;;1.73;;
18647;SDS011;9453;50.294;18.644;2023-07-30T15:44:27;6.53;;;1.55;;
18647;SDS011;9453;50.294;18.644;2023-07-30T15:46:54;2.88;;;1.90;;
18647;SDS011;9453;50.294;18.644;2023-07-30T15:49:21;3.05;;;2.20;;
18647;SDS011;9453;50.294;18.644;2023-07-30T15:51:48;2.55;;;1.70;;
18647;SDS011;9453;50.294;18.644;2023-07-30T15:54:16;3.65;;;1.83;;
18647;SDS011;9453;50.294;18.644;2023-07-30T15:56:44;2.65;;;1.45;;
18647;SDS011;9453;50.294;18.644;2023-07-30T15:59:11;4.47;;;1.80;;
18647;SDS011;9453;50.294;18.644;2023-07-30T16:01:38;2.65;;;1.65;;
18647;SDS011;9453;50.294;18.644;2023-07-30T16:04:05;3.85;;;1.55;;
18647;SDS011;9453;50.294;18.644;2023-07-30T16:06:33;4.63;;;1.80;;
18647;SDS011;9453;50.294;18.644;2023-07-30T16:09:00;2.05;;;1.50;;
18647;SDS011;9453;50.294;18.644;2023-07-30T16:11:27;3.67;;;1.77;;
18647;SDS011;9453;50.294;18.644;2023-07-30T16:13:59;3.58;;;1.35;;
18647;SDS011;9453;50.294;18.644;2023-07-30T16:16:27;2.08;;;1.38;;
18647;SDS011;9453;50.294;18.644;2023-07-30T16:18:54;1.88;;;1.33;;
18647;SDS011;9453;50.294;18.644;2023-07-30T16:21:22;3.45;;;1.98;;
18647;SDS011;9453;50.294;18.644;2023-07-30T16:23:49;3.42;;;1.70;;
18647;SDS011;9453;50.294;18.644;2023-07-30T16:26:16;3.70;;;1.77;;
18647;SDS011;9453;50.294;18.644;2023-07-30T16:28:43;3.20;;;2.00;;
18647;SDS011;9453;50.294;18.644;2023-07-30T16:31:12;3.50;;;1.95;;
18647;SDS011;9453;50.294;18.644;2023-07-30T16:33:39;3.55;;;1.90;;
18647;SDS011;9453;50.294;18.644;2023-07-30T16:36:06;3.70;;;2.13;;
18647;SDS011;9453;50.294;18.644;2023-07-30T16:38:33;3.40;;;2.33;;
18647;SDS011;9453;50.294;18.644;2023-07-30T16:41:00;4.07;;;2.10;;
18647;SDS011;9453;50.294;18.644;2023-07-30T16:43:28;2.47;;;1.85;;
18647;SDS011;9453;50.294;18.644;2023-07-30T16:45:57;2.78;;;1.92;;
18647;SDS011;9453;50.294;18.644;2023-07-30T16:48:28;2.90;;;1.90;;
18647;SDS011;9453;50.294;18.644;2023-07-30T16:50:55;3.53;;;1.85;;
18647;SDS011;9453;50.294;18.644;2023-07-30T16:53:22;2.88;;;2.00;;
18647;SDS011;9453;50.294;18.644;2023-07-30T16:55:49;1.85;;;1.38;;
18647;SDS011;9453;50.294;18.644;2023-07-30T16:58:16;2.88;;;2.17;;
18647;SDS011;9453;50.294;18.644;2023-07-30T17:00:43;2.75;;;1.90;;
18647;SDS011;9453;50.294;18.644;2023-07-30T17:03:10;4.22;;;1.88;;
18647;SDS011;9453;50.294;18.644;2023-07-30T17:05:39;3.63;;;1.80;;
18647;SDS011;9453;50.294;18.644;2023-07-30T17:08:06;2.60;;;1.70;;
18647;SDS011;9453;50.294;18.644;2023-07-30T17:10:36;2.60;;;1.65;;
18647;SDS011;9453;50.294;18.644;2023-07-30T17:13:03;2.28;;;1.77;;
18647;SDS011;9453;50.294;18.644;2023-07-30T17:15:30;3.33;;;1.90;;
18647;SDS011;9453;50.294;18.644;2023-07-30T17:17:57;4.00;;;2.00;;
18647;SDS011;9453;50.294;18.644;2023-07-30T17:20:24;4.80;;;1.83;;
18647;SDS011;9453;50.294;18.644;2023-07-30T17:22:52;3.90;;;1.63;;
18647;SDS011;9453;50.294;18.644;2023-07-30T17:25:19;2.70;;;1.50;;
18647;SDS011;9453;50.294;18.644;2023-07-30T17:27:46;2.30;;;1.65;;
18647;SDS011;9453;50.294;18.644;2023-07-30T17:30:13;2.08;;;1.40;;
18647;SDS011;9453;50.294;18.644;2023-07-30T17:32:40;1.77;;;1.38;;
18647;SDS011;9453;50.294;18.644;2023-07-30T17:35:07;2.28;;;1.70;;
18647;SDS011;9453;50.294;18.644;2023-07-30T17:37:34;2.60;;;1.80;;
18647;SDS011;9453;50.294;18.644;2023-07-30T17:40:06;5.30;;;1.42;;
18647;SDS011;9453;50.294;18.644;2023-07-30T17:42:34;2.17;;;1.60;;
18647;SDS011;9453;50.294;18.644;2023-07-30T17:45:01;2.50;;;1.60;;
18647;SDS011;9453;50.294;18.644;2023-07-30T17:47:29;2.03;;;1.50;;
18647;SDS011;9453;50.294;18.644;2023-07-30T17:49:56;2.65;;;1.73;;
18647;SDS011;9453;50.294;18.644;2023-07-30T17:52:23;1.92;;;1.58;;
18647;SDS011;9453;50.294;18.644;2023-07-30T17:54:50;2.67;;;1.83;;
18647;SDS011;9453;50.294;18.644;2023-07-30T17:57:18;2.38;;;1.83;;
18647;SDS011;9453;50.294;18.644;2023-07-30T17:59:45;4.10;;;2.00;;
18647;SDS011;9453;50.294;18.644;2023-07-30T18:02:12;2.80;;;1.83;;
18647;SDS011;9453;50.294;18.644;2023-07-30T18:04:40;2.70;;;2.00;;
18647;SDS011;9453;50.294;18.644;2023-07-30T18:07:09;2.90;;;1.90;;
18647;SDS011;9453;50.294;18.644;2023-07-30T18:09:36;2.40;;;1.70;;
18647;SDS011;9453;50.294;18.644;2023-07-30T18:12:03;3.00;;;2.10;;
18647;SDS011;9453;50.294;18.644;2023-07-30T18:14:33;3.20;;;2.10;;
18647;SDS011;9453;50.294;18.644;2023-07-30T18:17:01;3.20;;;1.90;;
18647;SDS011;9453;50.294;18.644;2023-07-30T18:19:28;5.03;;;2.35;;
18647;SDS011;9453;50.294;18.644;2023-07-30T18:21:55;2.80;;;2.00;;
18647;SDS011;9453;50.294;18.644;2023-07-30T18:24:22;3.10;;;2.15;;
18647;SDS011;9453;50.294;18.644;2023-07-30T18:26:49;2.55;;;1.95;;
18647;SDS011;9453;50.294;18.644;2023-07-30T18:29:16;2.75;;;1.98;;
18647;SDS011;9453;50.294;18.644;2023-07-30T18:31:44;2.50;;;1.85;;
18647;SDS011;9453;50.294;18.644;2023-07-30T18:34:11;2.97;;;2.05;;
18647;SDS011;9453;50.294;18.644;2023-07-30T18:36:38;4.03;;;2.30;;
18647;SDS011;9453;50.294;18.644;2023-07-30T18:39:05;4.40;;;2.90;;
18647;SDS011;9453;50.294;18.644;2023-07-30T18:41:32;4.75;;;2.45;;
18647;SDS011;9453;50.294;18.644;2023-07-30T18:44:02;6.00;;;2.83;;
18647;SDS011;9453;50.294;18.644;2023-07-30T18:46:29;3.83;;;2.70;;
18647;SDS011;9453;50.294;18.644;2023-07-30T18:48:57;3.78;;;2.58;;
18647;SDS011;9453;50.294;18.644;2023-07-30T18:51:24;4.72;;;2.45;;